sensor_id;sensor_type;location;lat;lon;timestamp;temperature;humidity
30648;DHT22;17683;53.360;9.736;2024-02-04T00:01:43;7.00;99.90
30648;DHT22;17683;53.360;9.736;2024-02-04T00:04:09;7.00;99.90
30648;DHT22;17683;53.360;9.736;2024-02-04T00:06:35;6.90;99.90
30648;DHT22;17683;53.360;9.736;2024-02-04T00:09:01;6.90;99.90
30648;DHT22;17683;53.360;9.736;2024-02-04T00:11:29;6.90;99.90
30648;DHT22;17683;53.360;9.736;2024-02-04T00:13:54;6.90;99.90
30648;DHT22;17683;53.360;9.736;2024-02-04T00:16:20;6.90;99.90
30648;DHT22;17683;53.360;9.736;2024-02-04T00:18:46;6.90;99.90
30648;DHT22;17683;53.360;9.736;2024-02-04T00:21:11;6.80;99.90
30648;DHT22;17683;53.360;9.736;2024-02-04T00:23:37;6.80;99.90
30648;DHT22;17683;53.360;9.736;2024-02-04T00:26:03;6.80;99.90
30648;DHT22;17683;53.360;9.736;2024-02-04T00:28:29;6.70;99.90
30648;DHT22;17683;53.360;9.736;2024-02-04T00:30:54;6.70;99.90
30648;DHT22;17683;53.360;9.736;2024-02-04T00:33:24;6.70;99.90
30648;DHT22;17683;53.360;9.736;2024-02-04T00:35:50;6.70;99.90
30648;DHT22;17683;53.360;9.736;2024-02-04T00:38:16;6.70;99.90
30648;DHT22;17683;53.360;9.736;2024-02-04T00:40:42;6.70;99.90
30648;DHT22;17683;53.360;9.736;2024-02-04T00:43:07;6.60;99.90
30648;DHT22;17683;53.360;9.736;2024-02-04T00:45:33;6.60;99.90
30648;DHT22;17683;53.360;9.736;2024-02-04T00:47:59;6.60;99.90
30648;DHT22;17683;53.360;9.736;2024-02-04T00:50:25;6.60;99.90
30648;DHT22;17683;53.360;9.736;2024-02-04T00:52:50;6.60;99.90
30648;DHT22;17683;53.360;9.736;2024-02-04T00:55:19;6.60;99.90
30648;DHT22;17683;53.360;9.736;2024-02-04T00:57:45;6.50;99.90
30648;DHT22;17683;53.360;9.736;2024-02-04T01:00:11;6.50;99.90
30648;DHT22;17683;53.360;9.736;2024-02-04T01:02:38;6.50;99.90
30648;DHT22;17683;53.360;9.736;2024-02-04T01:05:05;6.50;99.90
30648;DHT22;17683;53.360;9.736;2024-02-04T01:07:31;6.50;99.90
30648;DHT22;17683;53.360;9.736;2024-02-04T01:09:56;6.50;99.90
30648;DHT22;17683;53.360;9.736;2024-02-04T01:12:22;6.50;99.90
30648;DHT22;17683;53.360;9.736;2024-02-04T01:14:48;6.50;99.90
30648;DHT22;17683;53.360;9.736;2024-02-04T01:17:13;6.50;99.90
30648;DHT22;17683;53.360;9.736;2024-02-04T01:19:39;6.50;99.90
30648;DHT22;17683;53.360;9.736;2024-02-04T01:22:05;6.50;99.90
30648;DHT22;17683;53.360;9.736;2024-02-04T01:24:31;6.50;99.90
30648;DHT22;17683;53.360;9.736;2024-02-04T01:26:57;6.50;99.90
30648;DHT22;17683;53.360;9.736;2024-02-04T01:29:23;6.50;99.90
30648;DHT22;17683;53.360;9.736;2024-02-04T01:31:48;6.50;99.90
30648;DHT22;17683;53.360;9.736;2024-02-04T01:34:14;6.60;99.90
30648;DHT22;17683;53.360;9.736;2024-02-04T01:36:40;6.60;99.90
30648;DHT22;17683;53.360;9.736;2024-02-04T01:39:06;6.60;99.90
30648;DHT22;17683;53.360;9.736;2024-02-04T01:41:32;6.60;99.90
30648;DHT22;17683;53.360;9.736;2024-02-04T01:43:59;6.60;99.90
30648;DHT22;17683;53.360;9.736;2024-02-04T01:46:25;6.70;99.90
30648;DHT22;17683;53.360;9.736;2024-02-04T01:48:51;6.70;99.90
30648;DHT22;17683;53.360;9.736;2024-02-04T01:51:17;6.80;99.90
30648;DHT22;17683;53.360;9.736;2024-02-04T01:53:47;6.80;99.90
30648;DHT22;17683;53.360;9.736;2024-02-04T01:56:14;6.80;99.90
30648;DHT22;17683;53.360;9.736;2024-02-04T01:58:40;6.80;99.90
30648;DHT22;17683;53.360;9.736;2024-02-04T02:01:09;6.80;99.90
30648;DHT22;17683;53.360;9.736;2024-02-04T02:03:36;6.90;99.90
30648;DHT22;17683;53.360;9.736;2024-02-04T02:06:05;6.90;99.90
30648;DHT22;17683;53.360;9.736;2024-02-04T02:08:32;6.90;99.90
30648;DHT22;17683;53.360;9.736;2024-02-04T02:11:18;6.90;99.90
30648;DHT22;17683;53.360;9.736;2024-02-04T02:13:49;6.90;99.90
30648;DHT22;17683;53.360;9.736;2024-02-04T02:16:17;6.90;99.90
30648;DHT22;17683;53.360;9.736;2024-02-04T02:18:52;6.90;99.90
30648;DHT22;17683;53.360;9.736;2024-02-04T02:21:44;6.90;99.90
30648;DHT22;17683;53.360;9.736;2024-02-04T02:26:52;7.00;99.90
30648;DHT22;17683;53.360;9.736;2024-02-04T02:29:19;7.00;99.90
30648;DHT22;17683;53.360;9.736;2024-02-04T02:31:45;7.00;99.90
30648;DHT22;17683;53.360;9.736;2024-02-04T02:34:12;7.00;99.90
30648;DHT22;17683;53.360;9.736;2024-02-04T02:36:44;7.00;99.90
30648;DHT22;17683;53.360;9.736;2024-02-04T02:39:21;7.00;99.90
30648;DHT22;17683;53.360;9.736;2024-02-04T02:41:50;7.00;99.90
30648;DHT22;17683;53.360;9.736;2024-02-04T02:44:18;7.00;99.90
30648;DHT22;17683;53.360;9.736;2024-02-04T02:46:46;6.90;99.90
30648;DHT22;17683;53.360;9.736;2024-02-04T02:49:13;6.90;99.90
30648;DHT22;17683;53.360;9.736;2024-02-04T02:51:39;6.90;99.90
30648;DHT22;17683;53.360;9.736;2024-02-04T02:54:05;6.90;99.90
30648;DHT22;17683;53.360;9.736;2024-02-04T02:56:31;6.90;99.90
30648;DHT22;17683;53.360;9.736;2024-02-04T02:58:57;6.80;99.90
30648;DHT22;17683;53.360;9.736;2024-02-04T03:01:24;6.80;99.90
30648;DHT22;17683;53.360;9.736;2024-02-04T03:03:50;6.80;99.90
30648;DHT22;17683;53.360;9.736;2024-02-04T03:06:16;6.70;99.90
30648;DHT22;17683;53.360;9.736;2024-02-04T03:08:41;6.70;99.90
30648;DHT22;17683;53.360;9.736;2024-02-04T03:11:07;6.70;99.90
30648;DHT22;17683;53.360;9.736;2024-02-04T03:13:33;6.60;99.90
30648;DHT22;17683;53.360;9.736;2024-02-04T03:15:58;6.70;99.90
30648;DHT22;17683;53.360;9.736;2024-02-04T03:18:25;6.70;99.90
30648;DHT22;17683;53.360;9.736;2024-02-04T03:20:51;6.70;99.90
30648;DHT22;17683;53.360;9.736;2024-02-04T03:23:16;6.60;99.90
30648;DHT22;17683;53.360;9.736;2024-02-04T03:25:42;6.60;99.90
30648;DHT22;17683;53.360;9.736;2024-02-04T03:28:08;6.60;99.90
30648;DHT22;17683;53.360;9.736;2024-02-04T03:30:33;6.60;99.90
30648;DHT22;17683;53.360;9.736;2024-02-04T03:32:59;6.50;99.90
30648;DHT22;17683;53.360;9.736;2024-02-04T03:35:25;6.50;99.90
30648;DHT22;17683;53.360;9.736;2024-02-04T03:37:50;6.50;99.90
30648;DHT22;17683;53.360;9.736;2024-02-04T03:40:16;6.50;99.90
30648;DHT22;17683;53.360;9.736;2024-02-04T03:42:44;6.50;99.90
30648;DHT22;17683;53.360;9.736;2024-02-04T03:45:10;6.50;99.90
30648;DHT22;17683;53.360;9.736;2024-02-04T03:47:36;6.40;99.90
30648;DHT22;17683;53.360;9.736;2024-02-04T03:50:01;6.40;99.90
30648;DHT22;17683;53.360;9.736;2024-02-04T03:52:27;6.40;99.90
30648;DHT22;17683;53.360;9.736;2024-02-04T03:54:53;6.40;99.90
30648;DHT22;17683;53.360;9.736;2024-02-04T03:57:19;6.30;99.90
30648;DHT22;17683;53.360;9.736;2024-02-04T03:59:45;6.30;99.90
30648;DHT22;17683;53.360;9.736;2024-02-04T04:02:12;6.30;99.90
30648;DHT22;17683;53.360;9.736;2024-02-04T04:04:40;6.30;99.90
30648;DHT22;17683;53.360;9.736;2024-02-04T04:07:08;6.30;99.90
30648;DHT22;17683;53.360;9.736;2024-02-04T04:09:34;6.30;99.90
30648;DHT22;17683;53.360;9.736;2024-02-04T04:11:59;6.30;99.90
30648;DHT22;17683;53.360;9.736;2024-02-04T04:14:25;6.30;99.90
30648;DHT22;17683;53.360;9.736;2024-02-04T04:16:51;6.30;99.90
30648;DHT22;17683;53.360;9.736;2024-02-04T04:19:17;6.30;99.90
30648;DHT22;17683;53.360;9.736;2024-02-04T04:21:42;6.30;99.90
30648;DHT22;17683;53.360;9.736;2024-02-04T04:24:08;6.30;99.90
30648;DHT22;17683;53.360;9.736;2024-02-04T04:26:34;6.30;99.90
30648;DHT22;17683;53.360;9.736;2024-02-04T04:28:59;6.30;99.90
30648;DHT22;17683;53.360;9.736;2024-02-04T04:31:25;6.30;99.90
30648;DHT22;17683;53.360;9.736;2024-02-04T04:33:51;6.30;99.90
30648;DHT22;17683;53.360;9.736;2024-02-04T04:36:19;6.30;99.90
30648;DHT22;17683;53.360;9.736;2024-02-04T04:38:44;6.30;99.90
30648;DHT22;17683;53.360;9.736;2024-02-04T04:41:10;6.30;99.90
30648;DHT22;17683;53.360;9.736;2024-02-04T04:43:39;6.20;99.90
30648;DHT22;17683;53.360;9.736;2024-02-04T04:46:04;6.20;99.90
30648;DHT22;17683;53.360;9.736;2024-02-04T04:48:30;6.20;99.90
30648;DHT22;17683;53.360;9.736;2024-02-04T04:50:56;6.20;99.90
30648;DHT22;17683;53.360;9.736;2024-02-04T04:53:22;6.20;99.90
30648;DHT22;17683;53.360;9.736;2024-02-04T04:55:47;6.20;99.90
30648;DHT22;17683;53.360;9.736;2024-02-04T04:58:13;6.20;99.90
30648;DHT22;17683;53.360;9.736;2024-02-04T05:00:39;6.20;99.90
30648;DHT22;17683;53.360;9.736;2024-02-04T05:03:05;6.20;99.90
30648;DHT22;17683;53.360;9.736;2024-02-04T05:05:30;6.20;99.90
30648;DHT22;17683;53.360;9.736;2024-02-04T05:07:56;6.20;99.90
30648;DHT22;17683;53.360;9.736;2024-02-04T05:10:22;6.10;99.90
30648;DHT22;17683;53.360;9.736;2024-02-04T05:12:47;6.10;99.90
30648;DHT22;17683;53.360;9.736;2024-02-04T05:15:13;6.10;99.90
30648;DHT22;17683;53.360;9.736;2024-02-04T05:17:39;6.10;99.90
30648;DHT22;17683;53.360;9.736;2024-02-04T05:20:05;6.10;99.90
30648;DHT22;17683;53.360;9.736;2024-02-04T05:22:33;6.10;99.90
30648;DHT22;17683;53.360;9.736;2024-02-04T05:24:58;6.10;99.90
30648;DHT22;17683;53.360;9.736;2024-02-04T05:27:24;6.00;99.90
30648;DHT22;17683;53.360;9.736;2024-02-04T05:29:50;6.10;99.90
30648;DHT22;17683;53.360;9.736;2024-02-04T05:32:16;6.10;99.90
30648;DHT22;17683;53.360;9.736;2024-02-04T05:34:42;6.00;99.90
30648;DHT22;17683;53.360;9.736;2024-02-04T05:37:07;6.00;99.90
30648;DHT22;17683;53.360;9.736;2024-02-04T05:39:33;6.10;99.90
30648;DHT22;17683;53.360;9.736;2024-02-04T05:41:59;6.10;99.90
30648;DHT22;17683;53.360;9.736;2024-02-04T05:44:24;6.00;99.90
30648;DHT22;17683;53.360;9.736;2024-02-04T05:46:50;6.00;99.90
30648;DHT22;17683;53.360;9.736;2024-02-04T05:49:16;6.00;99.90
30648;DHT22;17683;53.360;9.736;2024-02-04T05:51:42;6.00;99.90
30648;DHT22;17683;53.360;9.736;2024-02-04T05:54:07;6.00;99.90
30648;DHT22;17683;53.360;9.736;2024-02-04T05:56:34;6.00;99.90
30648;DHT22;17683;53.360;9.736;2024-02-04T05:59:00;6.00;99.90
30648;DHT22;17683;53.360;9.736;2024-02-04T06:01:25;6.00;99.90
30648;DHT22;17683;53.360;9.736;2024-02-04T06:03:51;6.00;99.90
30648;DHT22;17683;53.360;9.736;2024-02-04T06:06:17;6.00;99.90
30648;DHT22;17683;53.360;9.736;2024-02-04T06:08:45;5.90;99.90
30648;DHT22;17683;53.360;9.736;2024-02-04T06:11:15;6.00;99.90
30648;DHT22;17683;53.360;9.736;2024-02-04T06:13:42;6.00;99.90
30648;DHT22;17683;53.360;9.736;2024-02-04T06:16:08;6.00;99.90
30648;DHT22;17683;53.360;9.736;2024-02-04T06:18:35;6.10;99.90
30648;DHT22;17683;53.360;9.736;2024-02-04T06:21:05;6.10;99.90
30648;DHT22;17683;53.360;9.736;2024-02-04T06:23:31;6.10;99.90
30648;DHT22;17683;53.360;9.736;2024-02-04T06:25:57;6.10;99.90
30648;DHT22;17683;53.360;9.736;2024-02-04T06:28:23;6.10;99.90
30648;DHT22;17683;53.360;9.736;2024-02-04T06:30:49;6.10;99.90
30648;DHT22;17683;53.360;9.736;2024-02-04T06:33:15;6.10;99.90
30648;DHT22;17683;53.360;9.736;2024-02-04T06:35:41;6.20;99.90
30648;DHT22;17683;53.360;9.736;2024-02-04T06:38:07;6.10;99.90
30648;DHT22;17683;53.360;9.736;2024-02-04T06:40:33;6.10;99.90
30648;DHT22;17683;53.360;9.736;2024-02-04T06:42:59;6.10;99.90
30648;DHT22;17683;53.360;9.736;2024-02-04T06:45:24;6.10;99.90
30648;DHT22;17683;53.360;9.736;2024-02-04T06:47:50;6.10;99.90
30648;DHT22;17683;53.360;9.736;2024-02-04T06:50:16;6.10;99.90
30648;DHT22;17683;53.360;9.736;2024-02-04T06:52:43;6.10;99.90
30648;DHT22;17683;53.360;9.736;2024-02-04T06:55:09;6.10;99.90
30648;DHT22;17683;53.360;9.736;2024-02-04T06:57:35;6.10;99.90
30648;DHT22;17683;53.360;9.736;2024-02-04T07:00:01;6.10;99.90
30648;DHT22;17683;53.360;9.736;2024-02-04T07:02:27;6.10;99.90
30648;DHT22;17683;53.360;9.736;2024-02-04T07:04:53;6.10;99.90
30648;DHT22;17683;53.360;9.736;2024-02-04T07:07:18;6.10;99.90
30648;DHT22;17683;53.360;9.736;2024-02-04T07:09:44;6.10;99.90
30648;DHT22;17683;53.360;9.736;2024-02-04T07:12:10;6.10;99.90
30648;DHT22;17683;53.360;9.736;2024-02-04T07:14:36;6.10;99.90
30648;DHT22;17683;53.360;9.736;2024-02-04T07:17:01;6.10;99.90
30648;DHT22;17683;53.360;9.736;2024-02-04T07:19:27;6.10;99.90
30648;DHT22;17683;53.360;9.736;2024-02-04T07:21:53;6.10;99.90
30648;DHT22;17683;53.360;9.736;2024-02-04T07:24:18;6.10;99.90
30648;DHT22;17683;53.360;9.736;2024-02-04T07:26:45;6.10;99.90
30648;DHT22;17683;53.360;9.736;2024-02-04T07:29:12;6.10;99.90
30648;DHT22;17683;53.360;9.736;2024-02-04T07:31:38;6.20;99.90
30648;DHT22;17683;53.360;9.736;2024-02-04T07:34:05;6.20;99.90
30648;DHT22;17683;53.360;9.736;2024-02-04T07:36:31;6.20;99.90
30648;DHT22;17683;53.360;9.736;2024-02-04T07:38:57;6.20;99.90
30648;DHT22;17683;53.360;9.736;2024-02-04T07:41:23;6.20;99.90
30648;DHT22;17683;53.360;9.736;2024-02-04T07:43:49;6.20;99.90
30648;DHT22;17683;53.360;9.736;2024-02-04T07:46:15;6.30;99.90
30648;DHT22;17683;53.360;9.736;2024-02-04T07:48:41;6.30;99.90
30648;DHT22;17683;53.360;9.736;2024-02-04T07:51:07;6.30;99.90
30648;DHT22;17683;53.360;9.736;2024-02-04T07:53:34;6.30;99.90
30648;DHT22;17683;53.360;9.736;2024-02-04T07:56:02;6.30;99.90
30648;DHT22;17683;53.360;9.736;2024-02-04T07:58:32;6.30;99.90
30648;DHT22;17683;53.360;9.736;2024-02-04T08:00:59;6.30;99.90
30648;DHT22;17683;53.360;9.736;2024-02-04T08:03:25;6.40;99.90
30648;DHT22;17683;53.360;9.736;2024-02-04T08:05:51;6.40;99.90
30648;DHT22;17683;53.360;9.736;2024-02-04T08:08:17;6.40;99.90
30648;DHT22;17683;53.360;9.736;2024-02-04T08:10:43;6.40;99.90
30648;DHT22;17683;53.360;9.736;2024-02-04T08:13:10;6.40;99.90
30648;DHT22;17683;53.360;9.736;2024-02-04T08:15:36;6.40;99.90
30648;DHT22;17683;53.360;9.736;2024-02-04T08:18:01;6.50;99.90
30648;DHT22;17683;53.360;9.736;2024-02-04T08:20:27;6.40;99.90
30648;DHT22;17683;53.360;9.736;2024-02-04T08:22:54;6.50;99.90
30648;DHT22;17683;53.360;9.736;2024-02-04T08:25:20;6.50;99.90
30648;DHT22;17683;53.360;9.736;2024-02-04T08:27:46;6.50;99.90
30648;DHT22;17683;53.360;9.736;2024-02-04T08:30:12;6.60;99.90
30648;DHT22;17683;53.360;9.736;2024-02-04T08:32:38;6.60;99.90
30648;DHT22;17683;53.360;9.736;2024-02-04T08:35:05;6.60;99.90
30648;DHT22;17683;53.360;9.736;2024-02-04T08:37:32;6.60;99.90
30648;DHT22;17683;53.360;9.736;2024-02-04T08:39:59;6.60;99.90
30648;DHT22;17683;53.360;9.736;2024-02-04T08:42:24;6.70;99.90
30648;DHT22;17683;53.360;9.736;2024-02-04T08:44:50;6.70;99.90
30648;DHT22;17683;53.360;9.736;2024-02-04T08:47:16;6.70;99.90
30648;DHT22;17683;53.360;9.736;2024-02-04T08:49:43;6.70;99.90
30648;DHT22;17683;53.360;9.736;2024-02-04T08:52:08;6.80;99.90
30648;DHT22;17683;53.360;9.736;2024-02-04T08:54:34;6.80;99.90
30648;DHT22;17683;53.360;9.736;2024-02-04T08:57:00;6.80;99.90
30648;DHT22;17683;53.360;9.736;2024-02-04T08:59:26;6.90;99.90
30648;DHT22;17683;53.360;9.736;2024-02-04T09:01:52;6.90;99.90
30648;DHT22;17683;53.360;9.736;2024-02-04T09:04:17;6.90;99.90
30648;DHT22;17683;53.360;9.736;2024-02-04T09:06:43;6.90;99.90
30648;DHT22;17683;53.360;9.736;2024-02-04T09:09:09;7.00;99.90
30648;DHT22;17683;53.360;9.736;2024-02-04T09:11:35;7.00;99.90
30648;DHT22;17683;53.360;9.736;2024-02-04T09:14:01;7.00;99.90
30648;DHT22;17683;53.360;9.736;2024-02-04T09:16:28;7.00;99.90
30648;DHT22;17683;53.360;9.736;2024-02-04T09:18:54;7.00;99.90
30648;DHT22;17683;53.360;9.736;2024-02-04T09:21:19;7.00;99.90
30648;DHT22;17683;53.360;9.736;2024-02-04T09:23:45;7.10;99.90
30648;DHT22;17683;53.360;9.736;2024-02-04T09:26:11;7.10;99.90
30648;DHT22;17683;53.360;9.736;2024-02-04T09:28:37;7.10;99.90
30648;DHT22;17683;53.360;9.736;2024-02-04T09:31:03;7.20;99.90
30648;DHT22;17683;53.360;9.736;2024-02-04T09:33:29;7.20;99.90
30648;DHT22;17683;53.360;9.736;2024-02-04T09:35:55;7.20;99.90
30648;DHT22;17683;53.360;9.736;2024-02-04T09:38:21;7.20;99.90
30648;DHT22;17683;53.360;9.736;2024-02-04T09:40:47;7.20;99.90
30648;DHT22;17683;53.360;9.736;2024-02-04T09:43:13;7.30;99.90
30648;DHT22;17683;53.360;9.736;2024-02-04T09:45:39;7.30;99.90
30648;DHT22;17683;53.360;9.736;2024-02-04T09:48:06;7.30;99.90
30648;DHT22;17683;53.360;9.736;2024-02-04T09:50:33;7.30;99.90
30648;DHT22;17683;53.360;9.736;2024-02-04T09:52:59;7.40;99.90
30648;DHT22;17683;53.360;9.736;2024-02-04T09:55:27;7.40;99.90
30648;DHT22;17683;53.360;9.736;2024-02-04T09:57:54;7.40;99.90
30648;DHT22;17683;53.360;9.736;2024-02-04T10:00:20;7.40;99.90
30648;DHT22;17683;53.360;9.736;2024-02-04T10:02:48;7.40;99.90
30648;DHT22;17683;53.360;9.736;2024-02-04T10:05:15;7.40;99.90
30648;DHT22;17683;53.360;9.736;2024-02-04T10:07:42;7.40;99.90
30648;DHT22;17683;53.360;9.736;2024-02-04T10:10:08;7.40;99.90
30648;DHT22;17683;53.360;9.736;2024-02-04T10:12:38;7.40;99.90
30648;DHT22;17683;53.360;9.736;2024-02-04T10:15:07;7.40;99.90
30648;DHT22;17683;53.360;9.736;2024-02-04T10:17:33;7.40;99.90
30648;DHT22;17683;53.360;9.736;2024-02-04T10:20:00;7.40;99.90
30648;DHT22;17683;53.360;9.736;2024-02-04T10:22:29;7.40;99.90
30648;DHT22;17683;53.360;9.736;2024-02-04T10:25:06;7.40;99.90
30648;DHT22;17683;53.360;9.736;2024-02-04T10:27:34;7.40;99.90
30648;DHT22;17683;53.360;9.736;2024-02-04T10:30:00;7.40;99.90
30648;DHT22;17683;53.360;9.736;2024-02-04T10:32:27;7.40;99.90
30648;DHT22;17683;53.360;9.736;2024-02-04T10:34:53;7.50;99.90
30648;DHT22;17683;53.360;9.736;2024-02-04T10:37:19;7.40;99.90
30648;DHT22;17683;53.360;9.736;2024-02-04T10:39:45;7.50;99.90
30648;DHT22;17683;53.360;9.736;2024-02-04T10:42:15;7.50;99.90
30648;DHT22;17683;53.360;9.736;2024-02-04T10:44:45;7.60;99.90
30648;DHT22;17683;53.360;9.736;2024-02-04T10:47:16;7.60;99.90
30648;DHT22;17683;53.360;9.736;2024-02-04T10:49:50;7.70;99.90
30648;DHT22;17683;53.360;9.736;2024-02-04T10:52:17;7.70;99.90
30648;DHT22;17683;53.360;9.736;2024-02-04T10:54:44;7.70;99.90
30648;DHT22;17683;53.360;9.736;2024-02-04T10:57:13;7.70;99.90
30648;DHT22;17683;53.360;9.736;2024-02-04T10:59:42;7.80;99.90
30648;DHT22;17683;53.360;9.736;2024-02-04T11:02:11;7.80;99.90
30648;DHT22;17683;53.360;9.736;2024-02-04T11:04:38;7.80;99.90
30648;DHT22;17683;53.360;9.736;2024-02-04T11:07:05;7.80;99.90
30648;DHT22;17683;53.360;9.736;2024-02-04T11:09:32;7.90;99.90
30648;DHT22;17683;53.360;9.736;2024-02-04T11:11:59;7.90;99.90
30648;DHT22;17683;53.360;9.736;2024-02-04T11:14:27;7.90;99.90
30648;DHT22;17683;53.360;9.736;2024-02-04T11:20:02;7.90;99.90
30648;DHT22;17683;53.360;9.736;2024-02-04T11:23:10;8.00;99.90
30648;DHT22;17683;53.360;9.736;2024-02-04T11:25:52;8.00;99.90
30648;DHT22;17683;53.360;9.736;2024-02-04T11:28:21;8.00;99.90
30648;DHT22;17683;53.360;9.736;2024-02-04T11:30:48;8.00;99.90
30648;DHT22;17683;53.360;9.736;2024-02-04T11:33:18;8.00;99.90
30648;DHT22;17683;53.360;9.736;2024-02-04T11:35:44;8.10;99.90
30648;DHT22;17683;53.360;9.736;2024-02-04T11:38:10;8.10;99.90
30648;DHT22;17683;53.360;9.736;2024-02-04T11:40:41;8.10;99.90
30648;DHT22;17683;53.360;9.736;2024-02-04T11:43:09;8.10;99.90
30648;DHT22;17683;53.360;9.736;2024-02-04T11:45:42;8.10;99.90
30648;DHT22;17683;53.360;9.736;2024-02-04T11:48:10;8.20;99.90
30648;DHT22;17683;53.360;9.736;2024-02-04T11:50:37;8.20;99.90
30648;DHT22;17683;53.360;9.736;2024-02-04T11:53:10;8.20;99.90
30648;DHT22;17683;53.360;9.736;2024-02-04T11:55:39;8.20;99.90
30648;DHT22;17683;53.360;9.736;2024-02-04T11:58:06;8.30;99.90
30648;DHT22;17683;53.360;9.736;2024-02-04T12:00:36;8.30;99.90
30648;DHT22;17683;53.360;9.736;2024-02-04T12:03:04;8.30;99.90
30648;DHT22;17683;53.360;9.736;2024-02-04T12:05:32;8.30;99.90
30648;DHT22;17683;53.360;9.736;2024-02-04T12:08:08;8.40;99.90
30648;DHT22;17683;53.360;9.736;2024-02-04T12:10:35;8.40;99.90
30648;DHT22;17683;53.360;9.736;2024-02-04T12:13:06;8.40;99.90
30648;DHT22;17683;53.360;9.736;2024-02-04T12:15:35;8.50;99.90
30648;DHT22;17683;53.360;9.736;2024-02-04T12:18:08;8.40;99.90
30648;DHT22;17683;53.360;9.736;2024-02-04T12:20:35;8.50;99.90
30648;DHT22;17683;53.360;9.736;2024-02-04T12:23:05;8.50;99.90
30648;DHT22;17683;53.360;9.736;2024-02-04T12:25:35;8.50;99.90
30648;DHT22;17683;53.360;9.736;2024-02-04T12:28:01;8.60;99.90
30648;DHT22;17683;53.360;9.736;2024-02-04T12:30:29;8.50;99.90
30648;DHT22;17683;53.360;9.736;2024-02-04T12:32:58;8.60;99.90
30648;DHT22;17683;53.360;9.736;2024-02-04T12:35:25;8.60;99.90
30648;DHT22;17683;53.360;9.736;2024-02-04T12:37:55;8.60;99.90
30648;DHT22;17683;53.360;9.736;2024-02-04T12:40:28;8.60;99.90
30648;DHT22;17683;53.360;9.736;2024-02-04T12:43:00;8.60;99.90
30648;DHT22;17683;53.360;9.736;2024-02-04T12:45:28;8.60;99.90
30648;DHT22;17683;53.360;9.736;2024-02-04T12:47:55;8.50;99.90
30648;DHT22;17683;53.360;9.736;2024-02-04T12:50:21;8.50;99.90
30648;DHT22;17683;53.360;9.736;2024-02-04T12:52:49;8.50;99.90
30648;DHT22;17683;53.360;9.736;2024-02-04T12:55:21;8.50;99.90
30648;DHT22;17683;53.360;9.736;2024-02-04T12:57:48;8.50;99.90
30648;DHT22;17683;53.360;9.736;2024-02-04T13:00:18;8.50;99.90
30648;DHT22;17683;53.360;9.736;2024-02-04T13:02:44;8.50;99.90
30648;DHT22;17683;53.360;9.736;2024-02-04T13:05:10;8.50;99.90
30648;DHT22;17683;53.360;9.736;2024-02-04T13:07:36;8.50;99.90
30648;DHT22;17683;53.360;9.736;2024-02-04T13:10:02;8.50;99.90
30648;DHT22;17683;53.360;9.736;2024-02-04T13:12:28;8.50;99.90
30648;DHT22;17683;53.360;9.736;2024-02-04T13:14:54;8.40;99.90
30648;DHT22;17683;53.360;9.736;2024-02-04T13:17:20;8.50;99.90
30648;DHT22;17683;53.360;9.736;2024-02-04T13:19:45;8.50;99.90
30648;DHT22;17683;53.360;9.736;2024-02-04T13:22:11;8.50;99.90
30648;DHT22;17683;53.360;9.736;2024-02-04T13:24:39;8.50;99.90
30648;DHT22;17683;53.360;9.736;2024-02-04T13:27:05;8.50;99.90
30648;DHT22;17683;53.360;9.736;2024-02-04T13:29:35;8.50;99.90
30648;DHT22;17683;53.360;9.736;2024-02-04T13:32:00;8.50;99.90
30648;DHT22;17683;53.360;9.736;2024-02-04T13:34:26;8.60;99.90
30648;DHT22;17683;53.360;9.736;2024-02-04T13:36:52;8.50;99.90
30648;DHT22;17683;53.360;9.736;2024-02-04T13:39:18;8.50;99.90
30648;DHT22;17683;53.360;9.736;2024-02-04T13:41:44;8.50;99.90
30648;DHT22;17683;53.360;9.736;2024-02-04T13:44:10;8.50;99.90
30648;DHT22;17683;53.360;9.736;2024-02-04T13:46:36;8.50;99.90
30648;DHT22;17683;53.360;9.736;2024-02-04T13:49:02;8.50;99.90
30648;DHT22;17683;53.360;9.736;2024-02-04T13:51:29;8.50;99.90
30648;DHT22;17683;53.360;9.736;2024-02-04T13:53:54;8.50;99.90
30648;DHT22;17683;53.360;9.736;2024-02-04T13:56:20;8.50;99.90
30648;DHT22;17683;53.360;9.736;2024-02-04T13:58:46;8.50;99.90
30648;DHT22;17683;53.360;9.736;2024-02-04T14:01:12;8.50;99.90
30648;DHT22;17683;53.360;9.736;2024-02-04T14:03:39;8.50;99.90
30648;DHT22;17683;53.360;9.736;2024-02-04T14:06:05;8.50;99.90
30648;DHT22;17683;53.360;9.736;2024-02-04T14:08:30;8.50;99.90
30648;DHT22;17683;53.360;9.736;2024-02-04T14:10:56;8.50;99.90
30648;DHT22;17683;53.360;9.736;2024-02-04T14:13:22;8.50;99.90
30648;DHT22;17683;53.360;9.736;2024-02-04T14:15:48;8.50;99.90
30648;DHT22;17683;53.360;9.736;2024-02-04T14:18:14;8.50;99.90
30648;DHT22;17683;53.360;9.736;2024-02-04T14:20:40;8.50;99.90
30648;DHT22;17683;53.360;9.736;2024-02-04T14:23:06;8.50;99.90
30648;DHT22;17683;53.360;9.736;2024-02-04T14:25:31;8.50;99.90
30648;DHT22;17683;53.360;9.736;2024-02-04T14:27:57;8.50;99.90
30648;DHT22;17683;53.360;9.736;2024-02-04T14:30:23;8.50;99.90
30648;DHT22;17683;53.360;9.736;2024-02-04T14:32:49;8.40;99.90
30648;DHT22;17683;53.360;9.736;2024-02-04T14:35:15;8.50;99.90
30648;DHT22;17683;53.360;9.736;2024-02-04T14:37:41;8.50;99.90
30648;DHT22;17683;53.360;9.736;2024-02-04T14:40:09;8.40;99.90
30648;DHT22;17683;53.360;9.736;2024-02-04T14:42:35;8.40;99.90
30648;DHT22;17683;53.360;9.736;2024-02-04T14:45:01;8.40;99.90
30648;DHT22;17683;53.360;9.736;2024-02-04T14:47:28;8.40;99.90
30648;DHT22;17683;53.360;9.736;2024-02-04T14:49:54;8.40;99.90
30648;DHT22;17683;53.360;9.736;2024-02-04T14:52:20;8.40;99.90
30648;DHT22;17683;53.360;9.736;2024-02-04T14:54:46;8.30;99.90
30648;DHT22;17683;53.360;9.736;2024-02-04T14:57:12;8.30;99.90
30648;DHT22;17683;53.360;9.736;2024-02-04T14:59:39;8.30;99.90
30648;DHT22;17683;53.360;9.736;2024-02-04T15:02:05;8.30;99.90
30648;DHT22;17683;53.360;9.736;2024-02-04T15:04:35;8.30;99.90
30648;DHT22;17683;53.360;9.736;2024-02-04T15:07:01;8.30;99.90
30648;DHT22;17683;53.360;9.736;2024-02-04T15:09:33;8.30;99.90
30648;DHT22;17683;53.360;9.736;2024-02-04T15:12:00;8.30;99.90
30648;DHT22;17683;53.360;9.736;2024-02-04T15:14:26;8.30;99.90
30648;DHT22;17683;53.360;9.736;2024-02-04T15:16:53;8.20;99.90
30648;DHT22;17683;53.360;9.736;2024-02-04T15:19:22;8.20;99.90
30648;DHT22;17683;53.360;9.736;2024-02-04T15:21:49;8.20;99.90
30648;DHT22;17683;53.360;9.736;2024-02-04T15:24:15;8.10;99.90
30648;DHT22;17683;53.360;9.736;2024-02-04T15:26:42;8.10;99.90
30648;DHT22;17683;53.360;9.736;2024-02-04T15:29:11;8.10;99.90
30648;DHT22;17683;53.360;9.736;2024-02-04T15:31:39;8.10;99.90
30648;DHT22;17683;53.360;9.736;2024-02-04T15:34:05;8.10;99.90
30648;DHT22;17683;53.360;9.736;2024-02-04T15:36:32;8.00;99.90
30648;DHT22;17683;53.360;9.736;2024-02-04T15:38:58;8.00;99.90
30648;DHT22;17683;53.360;9.736;2024-02-04T15:41:23;8.00;99.90
30648;DHT22;17683;53.360;9.736;2024-02-04T15:43:49;8.00;99.90
30648;DHT22;17683;53.360;9.736;2024-02-04T15:46:17;8.00;99.90
30648;DHT22;17683;53.360;9.736;2024-02-04T15:48:44;7.90;99.90